Black Mesa, Arizona
Current Conditions -  °F | °C
As of 10:53 PM on Friday 19 Dec 2014 (Local Time) from KPGA Reporting Station
Clear Clear  
Wind Chill: 34°   Ceiling: Unl
Heat Index: 38°   Visibility: 7mi
Dew Point: 29°   Wind: 5mph
Humidity: 70%   Direction: 220°SW
Pressure: 30.21"   Gusts: NA
Location:  36.6859°N, 110.268°W
Report Text: KPGA 200553Z AUTO 22004KT 7SM CLR 03/M02 A3021 RMK AO2 SLP228 T00331017 10061 20028 56001 TSNO
Loading
Personal Weather Stations






























Interactive Weather Map New forecast layout! Learn more

10-Day Weather Forecast

Advertisements
Track Severe Weather on mobile